Time;durP1;ratioP1;P1;durP2;ratioP2;P2;SDS_P1;SDS_P2;PMS_P1;PMS_P2;Temp;Humidity;BMP_temperature;BMP_pressure;BME280_temperature;BME280_humidity;BME280_pressure;Samples;Min_cycle;Max_cycle;Signal;HPM_P1;HPM_P2
2022/05/12 00:01:18;;;;;;;5.10;4.60;;;;;;;;;;12541934;28;20032;-80
2022/05/12 00:07:19;;;;;;;6.57;5.05;;;;;;;;;;12542444;28;20053;-79
2022/05/12 00:13:21;;;;;;;6.50;5.85;;;;;;;;;;12541586;28;20040;-80
2022/05/12 00:19:24;;;;;;;7.38;5.70;;;;;;;;;;12541908;28;20048;-80
2022/05/12 00:25:26;;;;;;;6.63;6.03;;;;;;;;;;12542788;28;20043;-80
2022/05/12 00:31:28;;;;;;;5.97;5.20;;;;;;;;;;12546253;28;20035;-80
2022/05/12 00:37:30;;;;;;;6.47;5.88;;;;;;;;;;12552199;28;20474;-80
2022/05/12 00:43:35;;;;;;;5.80;5.32;;;;;;;;;;12549634;28;20037;-80
2022/05/12 00:49:40;;;;;;;5.90;5.32;;;;;;;;;;12549331;28;20037;-80
2022/05/12 00:55:42;;;;;;;6.43;5.70;;;;;;;;;;12550413;28;20049;-80
2022/05/12 01:01:44;;;;;;;5.00;4.47;;;;;;;;;;12532322;28;20486;-79
2022/05/12 01:07:46;;;;;;;6.25;5.60;;;;;;;;;;12549095;28;20064;-80
2022/05/12 01:14:07;;;;;;;7.63;6.18;;;;;;;;;;12549459;28;20041;-81
2022/05/12 01:20:09;;;;;;;8.30;7.00;;;;;;;;;;12548231;28;20132;-79
2022/05/12 01:26:10;;;;;;;;;;;;;;;;;;12548119;28;20040;-79
2022/05/12 01:32:12;;;;;;;10.20;6.75;;;;;;;;;;12531070;28;20373;-80
2022/05/12 01:38:14;;;;;;;5.78;5.25;;;;;;;;;;12547931;28;20033;-79
2022/05/12 01:44:16;;;;;;;5.28;4.63;;;;;;;;;;12546654;28;20029;-80
2022/05/12 01:50:18;;;;;;;6.07;5.47;;;;;;;;;;12547454;28;20060;-80
2022/05/12 01:56:20;;;;;;;9.57;7.95;;;;;;;;;;12546175;28;20291;-80
2022/05/12 02:02:22;;;;;;;8.87;7.40;;;;;;;;;;12546384;28;20037;-79
2022/05/12 02:08:24;;;;;;;8.45;7.65;;;;;;;;;;12545733;28;20288;-79
2022/05/12 02:14:26;;;;;;;7.35;6.63;;;;;;;;;;12546304;28;20029;-79
2022/05/12 02:20:28;;;;;;;4.57;4.15;;;;;;;;;;12546503;28;20049;-80
2022/05/12 02:26:30;;;;;;;8.13;7.32;;;;;;;;;;12546726;28;20477;-79
2022/05/12 02:32:32;;;;;;;7.78;6.97;;;;;;;;;;12545657;28;20036;-79
2022/05/12 02:38:34;;;;;;;7.33;6.63;;;;;;;;;;12546248;28;20052;-79
2022/05/12 02:44:36;;;;;;;6.67;6.00;;;;;;;;;;12545607;28;20040;-80
2022/05/12 02:50:38;;;;;;;7.07;6.30;;;;;;;;;;12543735;28;20040;-79
2022/05/12 02:56:40;;;;;;;10.75;8.38;;;;;;;;;;12544752;28;20391;-79
2022/05/12 03:02:41;;;;;;;8.02;7.22;;;;;;;;;;12544075;28;20037;-80
2022/05/12 03:08:44;;;;;;;7.23;6.63;;;;;;;;;;12544223;28;20498;-79
2022/05/12 03:14:46;;;;;;;9.02;7.88;;;;;;;;;;12542980;28;20286;-79
2022/05/12 03:20:48;;;;;;;6.03;5.40;;;;;;;;;;12543949;28;20167;-79
2022/05/12 03:26:50;;;;;;;8.05;7.07;;;;;;;;;;12544075;28;20041;-80
2022/05/12 03:32:52;;;;;;;7.63;6.85;;;;;;;;;;12543719;28;20064;-79
2022/05/12 03:38:54;;;;;;;5.97;5.47;;;;;;;;;;12526612;28;20401;-79
2022/05/12 03:44:58;;;;;;;8.20;5.70;;;;;;;;;;12543511;28;20044;-79
2022/05/12 03:51:00;;;;;;;6.53;5.93;;;;;;;;;;12543279;28;20025;-79
2022/05/12 03:57:03;;;;;;;6.80;6.10;;;;;;;;;;12543166;28;20045;-80
2022/05/12 04:03:05;;;;;;;7.88;6.60;;;;;;;;;;12541981;28;20490;-80
2022/05/12 04:09:07;;;;;;;6.73;6.07;;;;;;;;;;12550578;28;20489;-79
2022/05/12 04:15:09;;;;;;;7.67;6.13;;;;;;;;;;12552401;28;20036;-80
2022/05/12 04:21:11;;;;;;;6.65;6.05;;;;;;;;;;12551994;28;20037;-79
2022/05/12 04:27:13;;;;;;;8.73;7.22;;;;;;;;;;12554495;28;20033;-80
2022/05/12 04:39:37;;;;;;;8.52;7.72;;;;;;;;;;12552522;28;20040;-79
2022/05/12 04:45:40;;;;;;;6.88;6.18;;;;;;;;;;12550625;28;20033;-79
2022/05/12 04:51:42;;;;;;;9.43;8.30;;;;;;;;;;12550653;28;20042;-79
2022/05/12 04:57:45;;;;;;;9.50;8.50;;;;;;;;;;12550649;28;20052;-80
2022/05/12 05:03:47;;;;;;;10.55;9.48;;;;;;;;;;12548686;28;20402;-80
2022/05/12 05:09:49;;;;;;;7.43;6.57;;;;;;;;;;12549532;28;20067;-80
2022/05/12 05:15:51;;;;;;;10.05;9.05;;;;;;;;;;12548259;28;20045;-80
2022/05/12 05:21:53;;;;;;;12.13;11.02;;;;;;;;;;12547999;28;20386;-80
2022/05/12 05:27:55;;;;;;;9.73;8.70;;;;;;;;;;12533636;28;20029;-80
2022/05/12 05:33:57;;;;;;;10.30;9.30;;;;;;;;;;12545448;28;20532;-80
2022/05/12 05:39:59;;;;;;;9.73;8.00;;;;;;;;;;12547156;28;20049;-79
2022/05/12 05:46:00;;;;;;;10.60;9.63;;;;;;;;;;12534768;28;20397;-80
2022/05/12 05:58:23;;;;;;;6.25;5.70;;;;;;;;;;12530630;28;20295;-82
2022/05/12 06:04:25;;;;;;;10.75;8.20;;;;;;;;;;12512580;28;20415;-81
2022/05/12 06:10:26;;;;;;;8.93;8.13;;;;;;;;;;12525704;28;20044;-81
2022/05/12 06:16:28;;;;;;;8.85;7.95;;;;;;;;;;12528983;28;20045;-80
2022/05/12 06:22:30;;;;;;;10.88;8.95;;;;;;;;;;12512199;28;20040;-78
2022/05/12 06:28:32;;;;;;;8.75;7.78;;;;;;;;;;12512196;28;20024;-79
2022/05/12 06:34:34;;;;;;;7.90;7.13;;;;;;;;;;12529093;28;20493;-78
2022/05/12 06:40:36;;;;;;;8.40;7.60;;;;;;;;;;12530248;28;20048;-79
2022/05/12 06:46:40;;;;;;;8.50;7.60;;;;;;;;;;12514972;28;20513;-80
2022/05/12 06:52:43;;;;;;;10.27;8.50;;;;;;;;;;12536352;28;20024;-80
2022/05/12 06:58:45;;;;;;;8.13;7.35;;;;;;;;;;12529702;28;20048;-80
2022/05/12 07:04:46;;;;;;;7.57;6.15;;;;;;;;;;12528422;28;20036;-80
2022/05/12 07:10:48;;;;;;;8.35;7.03;;;;;;;;;;12497496;28;20044;-79
2022/05/12 07:16:50;;;;;;;10.73;8.52;;;;;;;;;;12528678;28;21070;-78
2022/05/12 07:29:17;;;;;;;7.00;6.30;;;;;;;;;;12527793;28;20048;-78
2022/05/12 07:35:19;;;;;;;8.20;7.40;;;;;;;;;;12534558;28;20047;-78
2022/05/12 07:41:22;;;;;;;8.32;7.05;;;;;;;;;;12534885;28;20052;-80
2022/05/12 07:47:27;;;;;;;9.52;7.60;;;;;;;;;;12540567;28;20033;-80
2022/05/12 07:53:29;;;;;;;7.15;6.45;;;;;;;;;;12537594;28;20550;-80
2022/05/12 07:59:32;;;;;;;5.78;5.25;;;;;;;;;;12509897;28;20477;-79
2022/05/12 08:05:34;;;;;;;6.40;4.95;;;;;;;;;;12535608;28;20037;-81
2022/05/12 08:11:35;;;;;;;;;;;;;;;;;;12543737;28;20049;-80
2022/05/12 08:17:37;;;;;;;10.77;8.63;;;;;;;;;;12539696;28;19928;-79
2022/05/12 08:23:40;;;;;;;7.43;6.65;;;;;;;;;;12538382;28;20039;-80
2022/05/12 08:29:43;;;;;;;8.38;7.10;;;;;;;;;;12536926;28;20020;-79
2022/05/12 08:35:45;;;;;;;5.40;4.90;;;;;;;;;;12537200;28;20398;-81
2022/05/12 08:41:48;;;;;;;5.70;4.95;;;;;;;;;;12501221;28;20037;-82
2022/05/12 08:47:51;;;;;;;6.38;5.72;;;;;;;;;;12514092;28;20040;-82
2022/05/12 08:53:55;;;;;;;12.23;7.93;;;;;;;;;;12541059;28;20033;-83
2022/05/12 08:59:58;;;;;;;7.32;5.43;;;;;;;;;;12534349;28;20401;-80
2022/05/12 09:06:02;;;;;;;6.75;4.97;;;;;;;;;;12528915;28;20041;-78
2022/05/12 09:12:10;;;;;;;6.88;5.03;;;;;;;;;;12537537;28;20040;-79
2022/05/12 09:18:15;;;;;;;9.00;6.18;;;;;;;;;;12515633;28;20497;-78
2022/05/12 09:24:17;;;;;;;6.05;5.45;;;;;;;;;;12517728;28;20029;-77
2022/05/12 09:30:30;;;;;;;6.10;5.15;;;;;;;;;;12533815;28;20029;-77
2022/05/12 09:36:51;;;;;;;4.40;4.03;;;;;;;;;;12530814;28;20080;-78
2022/05/12 09:42:56;;;;;;;5.88;5.32;;;;;;;;;;12519519;28;20033;-78
2022/05/12 09:49:20;;;;;;;9.07;6.93;;;;;;;;;;12524614;28;20032;-78
2022/05/12 09:55:24;;;;;;;6.07;4.93;;;;;;;;;;12501977;28;20032;-80
2022/05/12 10:01:30;;;;;;;4.70;4.07;;;;;;;;;;12504753;28;20043;-81
2022/05/12 10:13:55;;;;;;;5.38;4.47;;;;;;;;;;12510813;28;20041;-80
2022/05/12 10:19:58;;;;;;;4.25;3.88;;;;;;;;;;12527323;28;20037;-81
2022/05/12 10:26:06;;;;;;;3.90;3.55;;;;;;;;;;12516680;28;20032;-81
2022/05/12 10:32:11;;;;;;;4.45;4.05;;;;;;;;;;12522970;28;20032;-82
2022/05/12 10:38:15;;;;;;;4.70;4.18;;;;;;;;;;12525411;28;20044;-82
2022/05/12 10:44:23;;;;;;;4.70;3.70;;;;;;;;;;12518350;28;20037;-82
2022/05/12 10:50:37;;;;;;;3.85;3.30;;;;;;;;;;12515252;28;20398;-82
2022/05/12 10:56:57;;;;;;;3.33;3.03;;;;;;;;;;12519237;28;20309;-81
2022/05/12 11:03:14;;;;;;;4.53;3.97;;;;;;;;;;12494485;28;20489;-80
2022/05/12 11:09:20;;;;;;;4.63;3.40;;;;;;;;;;12513170;28;20421;-79
2022/05/12 11:15:27;;;;;;;12.93;5.13;;;;;;;;;;12518124;28;20045;-80
2022/05/12 11:21:30;;;;;;;6.72;5.35;;;;;;;;;;12518302;28;20040;-80
2022/05/12 11:27:52;;;;;;;5.47;4.22;;;;;;;;;;12482302;28;20037;-77
2022/05/12 11:33:56;;;;;;;3.60;3.30;;;;;;;;;;12523886;28;20029;-80
2022/05/12 11:40:00;;;;;;;3.72;3.40;;;;;;;;;;12522484;28;20060;-79
2022/05/12 11:46:20;;;;;;;6.85;4.53;;;;;;;;;;12514165;28;20037;-79
2022/05/12 11:52:25;;;;;;;6.00;3.92;;;;;;;;;;12507412;28;20051;-79
2022/05/12 11:58:35;;;;;;;5.10;4.22;;;;;;;;;;12514787;28;20051;-79
2022/05/12 12:04:37;;;;;;;4.20;3.80;;;;;;;;;;12518125;28;20050;-80
2022/05/12 12:10:40;;;;;;;3.70;3.40;;;;;;;;;;12523334;28;20052;-80
2022/05/12 12:17:04;;;;;;;5.10;4.60;;;;;;;;;;12530755;28;20091;-81
2022/05/12 12:23:24;;;;;;;5.18;3.60;;;;;;;;;;12524829;28;20037;-81
2022/05/12 12:29:43;;;;;;;6.15;4.93;;;;;;;;;;12537585;28;20021;-80
2022/05/12 12:35:54;;;;;;;3.28;2.95;;;;;;;;;;12533716;28;20040;-83
2022/05/12 12:42:05;;;;;;;3.88;2.97;;;;;;;;;;12546047;28;20052;-81
2022/05/12 12:48:11;;;;;;;3.10;2.53;;;;;;;;;;12543270;28;20036;-80
2022/05/12 13:00:41;;;;;;;4.15;3.70;;;;;;;;;;12545446;28;20051;-81
2022/05/12 13:06:48;;;;;;;32.90;6.25;;;;;;;;;;12524815;28;20053;-82
2022/05/12 13:12:54;;;;;;;9.00;4.50;;;;;;;;;;12541831;28;20056;-79
2022/05/12 13:18:56;;;;;;;5.18;4.13;;;;;;;;;;12544547;28;20028;-78
2022/05/12 13:24:58;;;;;;;5.07;4.00;;;;;;;;;;12534638;28;20037;-80
2022/05/12 13:31:14;;;;;;;6.38;4.60;;;;;;;;;;12542251;28;20033;-78
2022/05/12 13:37:26;;;;;;;7.55;4.55;;;;;;;;;;12540724;28;20045;-78
2022/05/12 13:43:40;;;;;;;4.82;4.32;;;;;;;;;;12542524;28;20032;-77
2022/05/12 13:49:42;;;;;;;4.93;4.53;;;;;;;;;;12521151;28;20044;-78
2022/05/12 13:55:44;;;;;;;6.50;4.03;;;;;;;;;;12521750;28;20024;-78
2022/05/12 14:01:46;;;;;;;4.03;3.75;;;;;;;;;;12542449;28;20037;-77
2022/05/12 14:08:05;;;;;;;4.43;4.05;;;;;;;;;;12542401;28;20063;-78
2022/05/12 14:20:30;;;;;;;4.57;3.70;;;;;;;;;;12525565;28;20056;-79
2022/05/12 14:26:31;;;;;;;3.20;2.95;;;;;;;;;;12538286;28;20037;-80
2022/05/12 14:32:41;;;;;;;3.75;3.40;;;;;;;;;;12546089;28;20052;-79
2022/05/12 14:38:43;;;;;;;3.17;2.90;;;;;;;;;;12546014;28;20397;-78
2022/05/12 14:44:45;;;;;;;3.10;2.88;;;;;;;;;;12548356;28;20041;-80
2022/05/12 14:50:48;;;;;;;4.43;4.05;;;;;;;;;;12556834;28;20040;-79
2022/05/12 14:56:50;;;;;;;3.95;3.03;;;;;;;;;;12548699;28;20041;-78
2022/05/12 15:02:52;;;;;;;4.82;3.85;;;;;;;;;;12531858;28;20508;-79
2022/05/12 15:08:54;;;;;;;3.17;2.88;;;;;;;;;;12552013;28;20068;-79
2022/05/12 15:14:56;;;;;;;3.72;3.00;;;;;;;;;;12555937;28;20033;-79
2022/05/12 15:20:58;;;;;;;4.53;3.83;;;;;;;;;;12544593;28;20056;-76
2022/05/12 15:27:01;;;;;;;3.40;2.40;;;;;;;;;;12544333;28;20033;-77
2022/05/12 15:33:03;;;;;;;4.03;3.25;;;;;;;;;;12542873;28;20028;-76
2022/05/12 15:39:06;;;;;;;3.08;2.80;;;;;;;;;;12543004;28;20045;-76
2022/05/12 15:45:08;;;;;;;5.03;3.50;;;;;;;;;;12543724;28;20405;-76
2022/05/12 15:51:10;;;;;;;3.30;3.10;;;;;;;;;;12544427;28;20041;-76
2022/05/12 15:57:11;;;;;;;7.43;4.85;;;;;;;;;;12543231;28;20040;-76
2022/05/12 16:03:15;;;;;;;3.75;3.40;;;;;;;;;;12547773;28;20044;-77
2022/05/12 16:09:17;;;;;;;5.57;5.15;;;;;;;;;;12553514;28;20063;-76
2022/05/12 16:15:22;;;;;;;4.30;3.58;;;;;;;;;;12551377;28;20036;-76
2022/05/12 16:21:24;;;;;;;3.50;3.20;;;;;;;;;;12552099;28;20044;-76
2022/05/12 16:27:26;;;;;;;3.42;3.13;;;;;;;;;;12551323;28;20060;-76
2022/05/12 16:33:28;;;;;;;3.83;3.15;;;;;;;;;;12551789;28;20029;-77
2022/05/12 16:39:30;;;;;;;2.67;2.47;;;;;;;;;;12551232;28;20049;-76
2022/05/12 16:45:33;;;;;;;2.88;2.55;;;;;;;;;;12550041;28;20075;-77
2022/05/12 16:51:35;;;;;;;4.45;2.67;;;;;;;;;;12549929;28;20036;-76
2022/05/12 16:57:38;;;;;;;2.40;2.20;;;;;;;;;;12551017;28;20515;-77
2022/05/12 17:03:40;;;;;;;2.30;2.10;;;;;;;;;;12550227;28;20033;-76
2022/05/12 17:09:42;;;;;;;2.30;2.10;;;;;;;;;;12550252;28;20079;-77
2022/05/12 17:15:43;;;;;;;1.65;1.55;;;;;;;;;;12549447;28;20037;-77
2022/05/12 17:21:45;;;;;;;2.17;1.55;;;;;;;;;;12531911;28;20047;-77
2022/05/12 17:27:48;;;;;;;1.65;1.55;;;;;;;;;;12549500;28;20401;-77
2022/05/12 17:33:50;;;;;;;2.22;1.35;;;;;;;;;;12548890;28;20362;-77
2022/05/12 17:39:53;;;;;;;2.15;1.77;;;;;;;;;;12530996;28;20051;-77
2022/05/12 17:45:55;;;;;;;1.45;1.35;;;;;;;;;;12548294;28;20388;-78
2022/05/12 17:51:57;;;;;;;1.92;1.50;;;;;;;;;;12548040;28;20147;-77
2022/05/12 17:57:59;;;;;;;1.38;1.27;;;;;;;;;;12547547;28;20213;-77
2022/05/12 18:04:02;;;;;;;1.00;1.00;;;;;;;;;;12545851;28;20037;-77
2022/05/12 18:10:05;;;;;;;1.65;1.50;;;;;;;;;;12545931;28;20069;-76
2022/05/12 18:16:07;;;;;;;2.13;1.35;;;;;;;;;;12530093;28;20032;-77
2022/05/12 18:22:11;;;;;;;1.27;1.10;;;;;;;;;;12548578;28;20037;-78
2022/05/12 18:28:14;;;;;;;1.25;1.13;;;;;;;;;;12546299;28;20041;-78
2022/05/12 18:34:16;;;;;;;1.20;1.10;;;;;;;;;;12528729;28;20036;-77
2022/05/12 18:40:19;;;;;;;2.42;1.40;;;;;;;;;;12526789;28;20043;-78
2022/05/12 18:46:21;;;;;;;1.90;1.48;;;;;;;;;;12543324;28;20055;-77
2022/05/12 18:52:22;;;;;;;2.70;1.60;;;;;;;;;;12543534;28;20462;-79
2022/05/12 18:58:25;;;;;;;1.67;1.38;;;;;;;;;;12544634;28;20481;-76
2022/05/12 19:04:26;;;;;;;1.40;1.30;;;;;;;;;;12526527;28;20044;-82
2022/05/12 19:10:29;;;;;;;1.30;1.20;;;;;;;;;;12527262;28;20048;-80
2022/05/12 19:16:31;;;;;;;1.80;1.55;;;;;;;;;;12542807;28;20052;-81
2022/05/12 19:22:34;;;;;;;2.53;1.50;;;;;;;;;;12544464;28;20044;-78
2022/05/12 19:28:36;;;;;;;1.85;1.70;;;;;;;;;;12542703;28;20112;-81
2022/05/12 19:34:38;;;;;;;;;;;;;;;;;;12545731;28;20040;-84
2022/05/12 19:40:42;;;;;;;2.83;1.83;;;;;;;;;;12536036;28;19924;-77
2022/05/12 19:46:44;;;;;;;2.10;1.50;;;;;;;;;;12535809;28;20029;-82
2022/05/12 19:52:46;;;;;;;3.65;1.98;;;;;;;;;;12552320;28;20050;-80
2022/05/12 19:58:50;;;;;;;1.88;1.67;;;;;;;;;;12552028;28;20041;-78
2022/05/12 20:04:52;;;;;;;1.67;1.58;;;;;;;;;;12553253;28;20481;-81
2022/05/12 20:10:54;;;;;;;2.67;2.22;;;;;;;;;;12551127;28;20057;-81
2022/05/12 20:16:57;;;;;;;3.35;2.78;;;;;;;;;;12552217;28;20040;-82
2022/05/12 20:22:58;;;;;;;2.92;2.63;;;;;;;;;;12551801;28;20363;-80
2022/05/12 20:29:00;;;;;;;;;;;;;;;;;;12552413;28;20041;-75
2022/05/12 20:35:02;;;;;;;4.47;3.13;;;;;;;;;;12550096;28;19916;-75
2022/05/12 20:41:04;;;;;;;3.17;1.73;;;;;;;;;;12533373;28;20520;-77
2022/05/12 20:47:06;;;;;;;2.63;1.48;;;;;;;;;;12550222;28;20032;-78
2022/05/12 20:53:08;;;;;;;2.00;1.50;;;;;;;;;;12532913;28;20363;-78
2022/05/12 20:59:10;;;;;;;2.22;1.55;;;;;;;;;;12550409;28;20039;-78
2022/05/12 21:05:11;;;;;;;;;;;;;;;;;;12532868;28;20029;-78
2022/05/12 21:11:13;;;;;;;1.23;0.83;;;;;;;;;;12515820;28;20381;-78
2022/05/12 21:17:15;;;;;;;;;;;;;;;;;;12500648;28;20053;-77
2022/05/12 21:23:17;;;;;;;2.45;1.75;;;;;;;;;;12515417;28;20060;-77
2022/05/12 21:29:19;;;;;;;1.50;1.40;;;;;;;;;;12482599;28;20037;-77
2022/05/12 21:35:25;;;;;;;2.65;1.90;;;;;;;;;;12481707;28;20041;-77
2022/05/12 21:41:27;;;;;;;3.08;1.70;;;;;;;;;;12499160;28;20041;-77
2022/05/12 21:47:28;;;;;;;1.60;1.50;;;;;;;;;;12498007;28;20471;-78
2022/05/12 21:53:35;;;;;;;1.58;1.48;;;;;;;;;;12514442;28;20386;-77
2022/05/12 22:05:58;;;;;;;1.77;1.33;;;;;;;;;;12498117;28;20033;-78
2022/05/12 22:12:18;;;;;;;;;;;;;;;;;;12546368;28;20053;-78
2022/05/12 22:18:20;;;;;;;2.20;1.50;;;;;;;;;;12546610;28;19917;-78
2022/05/12 22:24:22;;;;;;;1.30;1.20;;;;;;;;;;12545285;28;20041;-78
2022/05/12 22:30:24;;;;;;;1.10;1.00;;;;;;;;;;12528487;28;20037;-78
2022/05/12 22:36:26;;;;;;;1.50;1.30;;;;;;;;;;12546536;28;20037;-78
2022/05/12 22:42:28;;;;;;;1.60;1.50;;;;;;;;;;12544379;28;20052;-78
2022/05/12 22:48:29;;;;;;;1.35;1.15;;;;;;;;;;12544311;28;20032;-78
2022/05/12 22:54:31;;;;;;;;;;;;;;;;;;12544564;28;20040;-75
2022/05/12 23:00:34;;;;;;;1.50;1.40;;;;;;;;;;12543803;28;19920;-77
2022/05/12 23:06:37;;;;;;;1.75;1.60;;;;;;;;;;12543753;28;20393;-78
2022/05/12 23:12:40;;;;;;;1.40;1.30;;;;;;;;;;12544961;28;20059;-77
2022/05/12 23:25:03;;;;;;;1.45;1.35;;;;;;;;;;12543242;28;20037;-77
2022/05/12 23:31:05;;;;;;;1.50;1.30;;;;;;;;;;12542979;28;20055;-77
2022/05/12 23:37:07;;;;;;;2.45;2.17;;;;;;;;;;12526576;28;20040;-77
2022/05/12 23:43:08;;;;;;;1.88;1.77;;;;;;;;;;12543810;28;20040;-76
2022/05/12 23:49:11;;;;;;;2.58;2.38;;;;;;;;;;12542454;28;20044;-77
2022/05/12 23:55:12;;;;;;;2.35;2.15;;;;;;;;;;12542459;28;20524;-77
